createdAt,value
2023-03-18T00:00:16.721Z,2.28
2023-03-18T00:02:47.766Z,2.03
2023-03-18T00:05:15.070Z,1.98
2023-03-18T00:07:42.083Z,2.30
2023-03-18T00:10:10.372Z,2.20
2023-03-18T00:12:38.962Z,2.05
2023-03-18T00:15:11.493Z,2.15
2023-03-18T00:17:40.054Z,2.83
2023-03-18T00:20:07.721Z,2.10
2023-03-18T00:22:38.963Z,1.70
2023-03-18T00:25:10.337Z,1.75
2023-03-18T00:27:37.979Z,2.72
2023-03-18T00:30:06.447Z,2.42
2023-03-18T00:32:36.078Z,2.33
2023-03-18T00:35:04.267Z,2.30
2023-03-18T00:37:31.514Z,2.60
2023-03-18T00:40:06.785Z,2.55
2023-03-18T00:42:47.350Z,2.63
2023-03-18T00:45:16.148Z,2.60
2023-03-18T00:47:43.814Z,2.83
2023-03-18T00:50:13.640Z,2.92
2023-03-18T00:55:08.289Z,2.85
2023-03-18T00:57:37.745Z,2.72
2023-03-18T01:00:07.143Z,2.60
2023-03-18T01:02:34.404Z,3.25
2023-03-18T01:05:03.887Z,3.40
2023-03-18T01:07:30.624Z,3.40
2023-03-18T01:09:57.301Z,3.00
2023-03-18T01:12:25.570Z,3.00
2023-03-18T01:14:52.522Z,2.60
2023-03-18T01:17:19.245Z,3.55
2023-03-18T01:19:45.927Z,3.88
2023-03-18T01:22:12.623Z,3.15
2023-03-18T01:24:40.186Z,3.03
2023-03-18T01:27:07.644Z,2.80
2023-03-18T01:29:39.552Z,2.85
2023-03-18T01:32:06.941Z,3.20
2023-03-18T01:34:34.193Z,2.85
2023-03-18T01:37:03.463Z,2.80
2023-03-18T01:39:30.146Z,2.72
2023-03-18T01:41:56.849Z,3.45
2023-03-18T01:44:29.156Z,2.92
2023-03-18T01:46:58.216Z,3.10
2023-03-18T01:49:34.996Z,3.28
2023-03-18T01:52:12.689Z,2.80
2023-03-18T01:54:47.518Z,3.72
2023-03-18T01:57:17.925Z,3.33
2023-03-18T01:59:46.052Z,2.97
2023-03-18T02:02:16.104Z,3.17
2023-03-18T02:04:51.758Z,3.28
2023-03-18T02:07:27.843Z,3.15
2023-03-18T02:09:59.644Z,3.40
2023-03-18T02:12:31.818Z,3.17
2023-03-18T02:15:00.282Z,3.38
2023-03-18T02:17:31.771Z,2.97
2023-03-18T02:20:07.469Z,3.78
2023-03-18T02:22:39.665Z,3.15
2023-03-18T02:25:32.709Z,3.40
2023-03-18T02:28:03.558Z,2.90
2023-03-18T02:30:44.495Z,3.25
2023-03-18T02:33:16.209Z,3.22
2023-03-18T02:35:46.457Z,3.17
2023-03-18T02:38:15.743Z,3.10
2023-03-18T02:40:42.772Z,2.92
2023-03-18T02:43:31.910Z,3.10
2023-03-18T02:46:21.455Z,3.00
2023-03-18T02:48:51.410Z,3.22
2023-03-18T02:53:48.713Z,3.25
2023-03-18T02:58:45.543Z,3.80
2023-03-18T03:01:12.388Z,2.88
2023-03-18T03:03:39.709Z,3.08
2023-03-18T03:06:09.362Z,3.33
2023-03-18T03:08:36.601Z,3.22
2023-03-18T03:11:04.220Z,3.22
2023-03-18T03:13:31.064Z,3.00
2023-03-18T03:15:57.907Z,3.67
2023-03-18T03:18:25.414Z,3.03
2023-03-18T03:20:54.418Z,3.30
2023-03-18T03:23:21.139Z,2.97
2023-03-18T03:25:48.020Z,3.45
2023-03-18T03:28:18.850Z,3.55
2023-03-18T03:30:46.144Z,2.95
2023-03-18T03:33:15.590Z,3.05
2023-03-18T03:35:42.431Z,3.30
2023-03-18T03:38:11.446Z,2.88
2023-03-18T03:40:38.937Z,2.87
2023-03-18T03:43:06.496Z,3.90
2023-03-18T03:45:33.878Z,2.97
2023-03-18T03:48:00.930Z,3.50
2023-03-18T03:50:27.840Z,3.03
2023-03-18T03:52:57.087Z,3.67
2023-03-18T03:55:24.492Z,2.80
2023-03-18T03:57:51.712Z,3.00
2023-03-18T04:00:22.163Z,3.00
2023-03-18T04:02:51.244Z,3.65
2023-03-18T04:05:21.329Z,3.75
2023-03-18T04:10:20.545Z,3.03
2023-03-18T04:12:48.702Z,2.67
2023-03-18T04:15:21.215Z,3.08
2023-03-18T04:17:51.517Z,3.33
2023-03-18T04:20:18.907Z,3.08
2023-03-18T04:22:45.626Z,3.20
2023-03-18T04:25:14.739Z,3.47
2023-03-18T04:27:42.293Z,2.42
2023-03-18T04:30:12.676Z,3.42
2023-03-18T04:32:39.780Z,3.88
2023-03-18T04:35:07.341Z,3.63
2023-03-18T04:37:37.330Z,3.03
2023-03-18T04:40:08.345Z,3.30
2023-03-18T04:42:37.291Z,3.33
2023-03-18T04:45:05.517Z,3.10
2023-03-18T04:47:33.137Z,2.97
2023-03-18T04:50:04.568Z,3.90
2023-03-18T04:52:33.703Z,4.10
2023-03-18T04:55:00.566Z,3.70
2023-03-18T04:57:28.519Z,3.47
2023-03-18T04:59:55.279Z,3.13
2023-03-18T05:02:21.949Z,3.38
2023-03-18T05:04:51.185Z,3.40
2023-03-18T05:07:18.144Z,3.33
2023-03-18T05:09:44.959Z,3.10
2023-03-18T05:12:18.382Z,3.70
2023-03-18T05:14:45.965Z,3.30
2023-03-18T05:17:17.121Z,3.10
2023-03-18T05:19:48.458Z,3.33
2023-03-18T05:22:19.339Z,3.00
2023-03-18T05:24:46.754Z,3.00
2023-03-18T05:27:18.344Z,3.15
2023-03-18T05:29:46.012Z,3.38
2023-03-18T05:32:17.721Z,2.88
2023-03-18T05:34:44.821Z,2.83
2023-03-18T05:37:16.411Z,2.53
2023-03-18T05:39:44.998Z,3.15
2023-03-18T05:42:12.525Z,2.63
2023-03-18T05:44:40.374Z,2.47
2023-03-18T05:47:07.372Z,2.63
2023-03-18T05:49:34.482Z,2.60
2023-03-18T05:52:01.353Z,2.92
2023-03-18T05:54:28.808Z,3.15
2023-03-18T05:56:56.024Z,2.67
2023-03-18T05:59:23.990Z,2.92
2023-03-18T06:01:51.155Z,2.50
2023-03-18T06:04:20.387Z,2.33
2023-03-18T06:06:48.270Z,2.63
2023-03-18T06:09:17.684Z,2.70
2023-03-18T06:11:45.642Z,2.63
2023-03-18T06:14:17.445Z,2.60
2023-03-18T06:16:45.330Z,2.72
2023-03-18T06:19:14.765Z,2.58
2023-03-18T06:21:41.490Z,2.22
2023-03-18T06:24:13.239Z,2.60
2023-03-18T06:26:44.788Z,2.08
2023-03-18T06:29:11.954Z,2.30
2023-03-18T06:31:38.647Z,2.10
2023-03-18T06:34:05.309Z,2.40
2023-03-18T06:36:33.421Z,2.15
2023-03-18T06:39:00.085Z,2.30
2023-03-18T06:41:28.040Z,2.40
2023-03-18T06:43:54.744Z,2.30
2023-03-18T06:46:21.460Z,2.60
2023-03-18T06:48:50.773Z,3.47
2023-03-18T06:51:17.861Z,2.30
2023-03-18T06:53:45.089Z,2.17
2023-03-18T06:56:15.789Z,2.67
2023-03-18T06:58:45.826Z,2.63
2023-03-18T07:01:12.612Z,2.38
2023-03-18T07:03:39.534Z,2.45
2023-03-18T07:06:10.282Z,2.65
2023-03-18T07:08:37.136Z,2.47
2023-03-18T07:11:04.862Z,2.50
2023-03-18T07:13:31.626Z,2.25
2023-03-18T07:15:58.972Z,2.75
2023-03-18T07:18:28.197Z,2.80
2023-03-18T07:20:57.527Z,3.40
2023-03-18T07:23:24.234Z,2.60
2023-03-18T07:25:53.483Z,2.38
2023-03-18T07:28:20.192Z,2.35
2023-03-18T07:30:51.932Z,2.58
2023-03-18T07:33:22.224Z,2.95
2023-03-18T07:35:48.932Z,2.70
2023-03-18T07:38:18.151Z,1.85
2023-03-18T07:40:44.836Z,2.28
2023-03-18T07:43:11.549Z,2.40
2023-03-18T07:45:40.921Z,3.00
2023-03-18T07:48:07.660Z,2.70
2023-03-18T07:50:39.186Z,2.50
2023-03-18T07:53:05.845Z,2.67
2023-03-18T07:55:33.217Z,2.50
2023-03-18T07:58:00.278Z,2.40
2023-03-18T08:00:27.718Z,2.28
2023-03-18T08:02:54.434Z,2.25
2023-03-18T08:05:23.897Z,2.83
2023-03-18T08:07:50.579Z,2.65
2023-03-18T08:10:17.464Z,2.53
2023-03-18T08:12:52.651Z,2.85
2023-03-18T08:15:20.792Z,2.53
2023-03-18T08:17:50.099Z,2.55
2023-03-18T08:20:19.187Z,2.42
2023-03-18T08:22:46.049Z,2.50
2023-03-18T08:25:13.503Z,2.30
2023-03-18T08:27:43.163Z,2.38
2023-03-18T08:30:10.648Z,2.53
2023-03-18T08:32:40.045Z,2.67
2023-03-18T08:35:07.213Z,2.20
2023-03-18T08:37:33.941Z,2.30
2023-03-18T08:40:00.578Z,2.47
2023-03-18T08:42:30.504Z,2.15
2023-03-18T08:47:26.098Z,2.25
2023-03-18T08:49:52.791Z,2.17
2023-03-18T08:52:19.843Z,2.20
2023-03-18T08:54:46.509Z,2.33
2023-03-18T08:57:13.733Z,2.30
2023-03-18T08:59:42.943Z,2.08
2023-03-18T09:02:16.884Z,2.13
2023-03-18T09:04:44.219Z,2.42
2023-03-18T09:07:14.583Z,2.10
2023-03-18T09:09:43.904Z,2.08
2023-03-18T09:12:12.490Z,1.95
2023-03-18T09:14:40.441Z,1.48
2023-03-18T09:17:07.377Z,1.80
2023-03-18T09:19:34.740Z,1.90
2023-03-18T09:22:01.469Z,2.00
2023-03-18T09:24:28.231Z,1.70
2023-03-18T09:26:54.912Z,1.75
2023-03-18T09:29:21.691Z,1.50
2023-03-18T09:31:48.438Z,1.60
2023-03-18T09:34:15.878Z,1.50
2023-03-18T09:36:50.765Z,2.08
2023-03-18T09:39:23.969Z,1.50
2023-03-18T09:42:25.845Z,1.63
2023-03-18T09:44:58.994Z,1.63
2023-03-18T09:47:56.223Z,2.00
2023-03-18T09:50:40.493Z,1.45
2023-03-18T09:53:28.540Z,1.80
2023-03-18T09:56:02.811Z,1.60
2023-03-18T09:59:04.691Z,1.45
2023-03-18T10:01:36.060Z,1.45
2023-03-18T10:04:20.265Z,1.65
2023-03-18T10:06:50.730Z,1.60
2023-03-18T10:09:24.966Z,1.70
2023-03-18T10:11:53.893Z,1.52
2023-03-18T10:14:26.560Z,1.30
2023-03-18T10:17:22.502Z,1.50
2023-03-18T10:19:56.032Z,1.80
2023-03-18T10:22:37.846Z,1.77
2023-03-18T10:25:35.190Z,1.55
2023-03-18T10:28:43.573Z,1.40
2023-03-18T10:31:33.715Z,1.45
2023-03-18T10:34:44.856Z,1.30
2023-03-18T10:37:34.863Z,1.90
2023-03-18T10:40:02.377Z,1.30
2023-03-18T10:42:31.812Z,1.25
2023-03-18T10:45:24.466Z,1.35
2023-03-18T10:48:20.966Z,1.38
2023-03-18T10:51:09.573Z,1.23
2023-03-18T10:53:42.861Z,1.40
2023-03-18T10:56:11.906Z,1.70
2023-03-18T10:58:40.558Z,1.42
2023-03-18T11:01:13.044Z,1.45
2023-03-18T11:03:52.225Z,1.05
2023-03-18T11:06:45.772Z,0.90
2023-03-18T11:09:24.167Z,1.27
2023-03-18T11:11:56.882Z,1.50
2023-03-18T11:14:31.602Z,1.30
2023-03-18T11:17:18.149Z,1.48
2023-03-18T11:20:11.451Z,1.30
2023-03-18T11:22:44.249Z,1.23
2023-03-18T11:25:30.115Z,1.58
2023-03-18T11:28:07.664Z,1.25
2023-03-18T11:30:56.845Z,1.50
2023-03-18T11:33:31.422Z,1.10
2023-03-18T11:36:00.563Z,1.10
2023-03-18T11:38:33.153Z,1.30
2023-03-18T11:41:30.200Z,1.20
2023-03-18T11:44:08.527Z,1.27
2023-03-18T11:46:49.637Z,1.55
2023-03-18T11:49:26.984Z,1.30
2023-03-18T11:52:22.371Z,1.13
2023-03-18T11:55:03.519Z,1.38
2023-03-18T11:57:45.198Z,1.27
2023-03-18T12:00:40.578Z,1.40
2023-03-18T12:03:32.977Z,1.42
2023-03-18T12:05:59.737Z,0.77
2023-03-18T12:08:37.696Z,1.15
2023-03-18T12:11:14.577Z,1.40
2023-03-18T12:13:48.297Z,1.33
2023-03-18T12:16:30.707Z,1.33
2023-03-18T12:19:12.442Z,1.40
2023-03-18T12:21:45.043Z,1.30
2023-03-18T12:24:50.172Z,1.52
2023-03-18T12:27:38.514Z,1.60
2023-03-18T12:30:05.582Z,1.33
2023-03-18T12:32:40.322Z,1.55
2023-03-18T12:35:17.828Z,1.58
2023-03-18T12:38:05.094Z,1.27
2023-03-18T12:40:33.014Z,1.35
2023-03-18T12:43:00.325Z,1.90
2023-03-18T12:45:35.941Z,1.83
2023-03-18T12:48:08.898Z,1.73
2023-03-18T12:50:50.178Z,1.70
2023-03-18T12:53:49.044Z,1.10
2023-03-18T12:56:29.995Z,1.65
2023-03-18T12:59:21.638Z,1.60
2023-03-18T13:02:26.426Z,1.27
2023-03-18T13:05:05.641Z,1.17
2023-03-18T13:07:53.082Z,1.50
2023-03-18T13:10:22.720Z,1.33
2023-03-18T13:15:29.877Z,1.52
2023-03-18T13:18:02.803Z,1.27
2023-03-18T13:20:36.630Z,1.50
2023-03-18T13:23:16.115Z,1.85
2023-03-18T13:26:44.784Z,1.30
2023-03-18T13:29:23.044Z,1.40
2023-03-18T13:31:54.730Z,1.70
2023-03-18T13:34:33.634Z,1.40
2023-03-18T13:37:17.650Z,1.30
2023-03-18T13:40:00.561Z,1.23
2023-03-18T13:42:30.436Z,1.20
2023-03-18T13:45:12.967Z,1.20
2023-03-18T13:47:42.481Z,1.38
2023-03-18T13:50:22.232Z,1.52
2023-03-18T13:52:51.874Z,1.60
2023-03-18T13:58:32.645Z,1.50
2023-03-18T14:01:15.359Z,1.20
2023-03-18T14:03:44.564Z,1.77
2023-03-18T14:06:24.249Z,1.80
2023-03-18T14:08:53.120Z,1.67
2023-03-18T14:11:37.083Z,1.33
2023-03-18T14:14:26.292Z,1.48
2023-03-18T14:16:53.528Z,1.60
2023-03-18T14:19:32.391Z,1.60
2023-03-18T14:22:23.840Z,1.40
2023-03-18T14:25:11.248Z,1.67
2023-03-18T14:27:55.353Z,1.40
2023-03-18T14:31:05.548Z,1.90
2023-03-18T14:33:34.142Z,1.63
2023-03-18T14:36:25.941Z,1.42
2023-03-18T14:39:07.070Z,1.20
2023-03-18T14:41:40.886Z,1.17
2023-03-18T14:44:07.826Z,1.45
2023-03-18T14:46:41.318Z,1.25
2023-03-18T14:49:36.259Z,1.90
2023-03-18T14:52:32.278Z,1.50
2023-03-18T14:55:05.304Z,1.70
2023-03-18T14:57:34.221Z,1.60
2023-03-18T15:00:06.563Z,1.65
2023-03-18T15:02:35.136Z,1.52
2023-03-18T15:05:04.803Z,1.45
2023-03-18T15:07:39.090Z,1.67
2023-03-18T15:10:19.823Z,1.83
2023-03-18T15:13:07.028Z,1.38
2023-03-18T15:15:34.997Z,1.67
2023-03-18T15:18:16.983Z,1.88
2023-03-18T15:20:48.852Z,1.67
2023-03-18T15:23:18.739Z,1.92
2023-03-18T15:25:45.515Z,1.50
2023-03-18T15:28:23.708Z,2.00
2023-03-18T15:30:56.004Z,1.60
2023-03-18T15:33:41.575Z,1.67
2023-03-18T15:36:17.299Z,2.30
2023-03-18T15:38:50.540Z,1.60
2023-03-18T15:41:21.515Z,1.80
2023-03-18T15:43:53.380Z,1.60
2023-03-18T15:46:25.680Z,1.90
2023-03-18T15:48:56.881Z,1.70
2023-03-18T15:51:40.167Z,1.77
2023-03-18T15:54:17.502Z,3.63
2023-03-18T15:56:49.395Z,2.17
2023-03-18T15:59:23.049Z,2.35
2023-03-18T16:01:50.424Z,2.20
2023-03-18T16:04:17.982Z,2.40
2023-03-18T16:06:44.749Z,2.28
2023-03-18T16:09:15.612Z,2.55
2023-03-18T16:11:43.892Z,2.25
2023-03-18T16:14:16.298Z,2.17
2023-03-18T16:16:43.152Z,1.85
2023-03-18T16:19:25.023Z,1.55
2023-03-18T16:21:52.550Z,1.60
2023-03-18T16:24:21.904Z,1.38
2023-03-18T16:26:49.152Z,2.38
2023-03-18T16:29:21.036Z,1.50
2023-03-18T16:31:50.025Z,1.27
2023-03-18T16:34:21.652Z,1.40
2023-03-18T16:36:50.625Z,1.63
2023-03-18T16:39:27.191Z,1.53
2023-03-18T16:41:54.695Z,1.75
2023-03-18T16:44:23.404Z,1.98
2023-03-18T16:46:56.453Z,1.40
2023-03-18T16:49:25.870Z,1.30
2023-03-18T16:51:53.414Z,1.25
2023-03-18T16:54:21.610Z,1.40
2023-03-18T16:56:55.554Z,1.50
2023-03-18T16:59:29.396Z,1.50
2023-03-18T17:01:56.361Z,1.02
2023-03-18T17:04:30.344Z,1.10
2023-03-18T17:07:01.648Z,1.02
2023-03-18T17:09:28.325Z,1.27
2023-03-18T17:12:04.944Z,1.20
2023-03-18T17:14:40.349Z,1.40
2023-03-18T17:17:16.112Z,1.33
2023-03-18T17:19:45.030Z,1.55
2023-03-18T17:22:20.244Z,1.27
2023-03-18T17:24:47.251Z,1.33
2023-03-18T17:27:25.819Z,1.88
2023-03-18T17:29:55.667Z,1.38
2023-03-18T17:32:22.505Z,1.40
2023-03-18T17:34:51.303Z,1.20
2023-03-18T17:37:23.482Z,1.45
2023-03-18T17:39:50.604Z,1.67
2023-03-18T17:42:26.399Z,1.15
2023-03-18T17:44:53.136Z,1.27
2023-03-18T17:47:19.933Z,1.42
2023-03-18T17:49:46.615Z,1.27
2023-03-18T17:52:19.353Z,1.35
2023-03-18T17:54:48.723Z,1.13
2023-03-18T17:57:17.371Z,1.70
2023-03-18T17:59:45.289Z,1.23
2023-03-18T18:02:17.691Z,1.20
2023-03-18T18:04:45.732Z,1.10
2023-03-18T18:07:25.401Z,1.58
2023-03-18T18:09:52.744Z,1.20
2023-03-18T18:12:25.354Z,1.55
2023-03-18T18:14:52.646Z,1.75
2023-03-18T18:17:19.419Z,1.73
2023-03-18T18:19:46.513Z,1.58
2023-03-18T18:22:22.551Z,1.60
2023-03-18T18:24:50.353Z,1.88
2023-03-18T18:27:17.205Z,1.65
2023-03-18T18:29:45.878Z,2.10
2023-03-18T18:32:15.530Z,1.88
2023-03-18T18:34:45.071Z,1.80
2023-03-18T18:37:11.940Z,2.45
2023-03-18T18:39:38.656Z,2.13
2023-03-18T18:42:07.784Z,2.40
2023-03-18T18:44:37.487Z,2.15
2023-03-18T18:47:04.315Z,2.70
2023-03-18T18:49:31.125Z,2.50
2023-03-18T18:51:57.885Z,2.40
2023-03-18T18:54:25.093Z,2.42
2023-03-18T18:56:54.836Z,3.00
2023-03-18T18:59:28.602Z,2.72
2023-03-18T19:01:56.895Z,2.50
2023-03-18T19:04:24.557Z,2.83
2023-03-18T19:06:52.867Z,2.60
2023-03-18T19:09:23.696Z,2.95
2023-03-18T19:11:51.616Z,2.42
2023-03-18T19:14:27.443Z,3.28
2023-03-18T19:16:57.325Z,3.00
2023-03-18T19:21:59.098Z,3.15
2023-03-18T19:24:35.951Z,3.28
2023-03-18T19:27:27.517Z,3.00
2023-03-18T19:29:57.469Z,3.00
2023-03-18T19:32:25.477Z,3.22
2023-03-18T19:34:55.845Z,3.00
2023-03-18T19:37:27.978Z,3.03
2023-03-18T19:39:58.979Z,3.63
2023-03-18T19:42:26.000Z,2.92
2023-03-18T19:44:52.790Z,3.05
2023-03-18T19:47:24.192Z,3.67
2023-03-18T19:49:53.682Z,3.40
2023-03-18T19:52:20.536Z,3.33
2023-03-18T19:54:52.891Z,2.72
2023-03-18T19:57:25.862Z,3.40
2023-03-18T19:59:54.792Z,3.30
2023-03-18T20:02:24.361Z,3.23
2023-03-18T20:04:53.618Z,2.78
2023-03-18T20:07:22.773Z,3.35
2023-03-18T20:09:49.540Z,3.03
2023-03-18T20:12:19.335Z,2.95
2023-03-18T20:17:49.018Z,3.15
2023-03-18T20:20:27.401Z,3.40
2023-03-18T20:22:57.557Z,3.60
2023-03-18T20:25:30.814Z,3.60
2023-03-18T20:28:04.583Z,3.50
2023-03-18T20:30:36.628Z,2.72
2023-03-18T20:33:06.956Z,3.33
2023-03-18T20:35:44.208Z,3.25
2023-03-18T20:38:28.404Z,3.17
2023-03-18T20:40:58.168Z,2.97
2023-03-18T20:43:28.788Z,3.15
2023-03-18T20:45:57.471Z,3.55
2023-03-18T20:48:32.832Z,3.30
2023-03-18T20:50:59.528Z,3.42
2023-03-18T20:53:29.951Z,3.20
2023-03-18T20:55:59.011Z,3.28
2023-03-18T20:58:31.890Z,4.05
2023-03-18T21:00:58.718Z,3.83
2023-03-18T21:03:30.730Z,3.30
2023-03-18T21:05:59.319Z,3.05
2023-03-18T21:08:30.384Z,3.17
2023-03-18T21:11:01.424Z,3.20
2023-03-18T21:13:28.530Z,2.90
2023-03-18T21:16:01.899Z,3.33
2023-03-18T21:18:28.973Z,3.50
2023-03-18T21:20:56.699Z,3.25
2023-03-18T21:23:28.826Z,3.15
2023-03-18T21:25:56.589Z,2.92
2023-03-18T21:28:25.577Z,2.90
2023-03-18T21:30:56.186Z,3.20
2023-03-18T21:33:33.236Z,3.22
2023-03-18T21:36:00.751Z,2.95
2023-03-18T21:38:29.793Z,3.10
2023-03-18T21:40:57.736Z,3.33
2023-03-18T21:43:33.704Z,2.85
2023-03-18T21:46:04.508Z,3.33
2023-03-18T21:48:33.493Z,3.35
2023-03-18T21:51:00.203Z,3.47
2023-03-18T21:53:30.102Z,3.60
2023-03-18T21:58:28.676Z,3.67
2023-03-18T22:00:57.598Z,3.25
2023-03-18T22:03:33.586Z,3.33
2023-03-18T22:06:00.265Z,2.83
2023-03-18T22:08:27.121Z,3.65
2023-03-18T22:10:53.883Z,3.42
2023-03-18T22:13:21.745Z,3.10
2023-03-18T22:15:57.701Z,3.22
2023-03-18T22:18:24.529Z,3.22
2023-03-18T22:20:51.925Z,3.67
2023-03-18T22:23:21.085Z,3.75
2023-03-18T22:25:52.470Z,3.55
2023-03-18T22:28:19.890Z,3.13
2023-03-18T22:30:51.926Z,3.30
2023-03-18T22:33:26.518Z,3.70
2023-03-18T22:35:53.802Z,3.35
2023-03-18T22:38:26.783Z,3.50
2023-03-18T22:40:57.535Z,2.97
2023-03-18T22:43:33.569Z,3.20
2023-03-18T22:46:02.796Z,3.28
2023-03-18T22:48:29.743Z,2.75
2023-03-18T22:51:00.417Z,2.53
2023-03-18T22:53:46.993Z,3.00
2023-03-18T22:56:16.526Z,2.72
2023-03-18T22:58:43.537Z,2.88
2023-03-18T23:01:15.561Z,2.90
2023-03-18T23:03:44.092Z,2.63
2023-03-18T23:06:18.303Z,2.88
2023-03-18T23:08:47.920Z,2.63
2023-03-18T23:11:15.939Z,2.88
2023-03-18T23:13:45.056Z,2.80
2023-03-18T23:16:20.485Z,3.00
2023-03-18T23:18:47.688Z,2.92
2023-03-18T23:21:24.893Z,3.40
2023-03-18T23:23:52.409Z,3.08
2023-03-18T23:26:19.717Z,3.13
2023-03-18T23:28:49.036Z,3.03
2023-03-18T23:31:18.838Z,3.83
2023-03-18T23:36:14.495Z,3.47
2023-03-18T23:38:43.926Z,3.70
2023-03-18T23:41:12.854Z,3.40
2023-03-18T23:43:39.531Z,3.08
2023-03-18T23:46:06.382Z,3.33
2023-03-18T23:48:33.197Z,2.95
2023-03-18T23:50:59.869Z,3.20
2023-03-18T23:53:27.230Z,2.80
2023-03-18T23:55:56.712Z,2.83
2023-03-18T23:58:23.458Z,2.70
